Millwood, Missouri
Current Conditions -  °F | °C
As of 9:54 AM on Saturday 22 Nov 2014 (Local Time) from KSET Reporting Station
Overcast Overcast  
Wind Chill: 55°   Ceiling: 7000
Heat Index: 55°   Visibility: 10mi
Dew Point: 47°   Wind: 12mph
Humidity: 74%   Direction: 200°SSW
Pressure: 30.08"   Gusts: NA
Location:  39.1404°N, 91.0631°W
Report Text: KSET 221554Z AUTO 20010KT 10SM SCT043 BKN070 OVC080 13/08 A3008 RMK AO2 SLP184 T01280083
Loading
Personal Weather Stations






























Interactive Weather Map New forecast layout! Learn more

10-Day Weather Forecast

Advertisements
Track Severe Weather on mobile